Morforte De Lemos, Spain
Current Conditions -  °F | °C
As of 10:30 AM on Wednesday 22 Oct 2014 (Local Time) from LEST Reporting Station
Moderate Fog Moderate Fog  
Wind Chill: 57°   Ceiling: Unl
Heat Index: 57°   Visibility: 6mi
Dew Point: 54°   Wind: 1mph
Humidity: 88%   Direction: NA
Pressure: 30.42"   Gusts: NA
Location:  42.52°N, 7.5°W
Report Text: LEST 220830Z VRB01KT 9999 VCFG NSC 14/12 Q1030 NOSIG
Loading
Personal Weather Stations






























Interactive Weather Map
Tropical Storm Tracking
New forecast layout! Learn more

10-Day Weather Forecast

Advertisements
Track Severe Weather on mobile